Fort Wayne, IN (46802)

1:18 PM EST on January 25, 2015 (GMT -0500)
Hillegas Road, Ft.Wayne, IN | Change Station
CLOSE
Current Station
Personal Weather Station
Location: Fort Wayne, IN
Elevation: 823 ft
Nearby Weather Stations

Elev 823 ft 41.10 °N, 85.19 °W | Updated 7 minutes ago

Snow
Snow
26.6 °F
Feels Like 18 °F
N
7.8
Wind Variable Wind from East

Today
High -- | Low -- °F
--% Chance of Precip.
Yesterday
High -- | Low -- °F
Precip. -- in
7:57 AM 5:48 PM
Waxing Crescent, 34% visible
Pressure 29.78 in
Visibility 1.0 miles
Clouds Mostly Cloudy 1200 ft
Overcast 2500 ft
Windchill 18 °F
Dew Point 26 °F
Humidity 96%
Rainfall 0.00 in
Snow Depth Not available.
UV 1 out of 12
Pollen .10 out of 12
Air Quality Not available.
Flu Activity Not available.
METAR KFWA 251754Z 07019G28KT 1SM -SN BR BKN012 OVC025 M02/M04 A2976 RMK AO2 PK WND 08028/1731 SLP085 R05/6500FT P0001 60003 T10221039 10011 21022 58004

More Conditions Fewer Conditions

Pressure 29.78 in
Visibility 1.0 miles
Clouds Mostly Cloudy 1200 ft
Overcast 2500 ft
Windchill 18 °F
Dew Point 26 °F
Humidity 96%
Rainfall 0.00 in
Snow Depth Not available.
UV 1 out of 12
Pollen .10 out of 12
Air Quality Not available.
Flu Activity Not available.
METAR KFWA 251754Z 07019G28KT 1SM -SN BR BKN012 OVC025 M02/M04 A2976 RMK AO2 PK WND 08028/1731 SLP085 R05/6500FT P0001 60003 T10221039 10011 21022 58004

More Conditions Fewer Conditions

10-Day Weather Forecast

Almanac

Astronomy

Jan. 25, 2015 Rise Set
Actual Time
Civil Twilight
Nautical Twilight
Astronomical Twilight
Moon
Length of Visible Light
Length of Day
Tomorrow will be .
, % of the Moon is Illuminated

Today's Extremes

State Highs State Lows

Community

WunderPhotos

Upload Photos

1,790,011 photos uploaded!

WunderBlogs® & News

Nearby

Air Quality

  Air Quality AQ Index Pollutant
Not available.

Snow Depth

Station Depth Elevation

Earthquake Activity

City Distance Mag. Time & Date
Minimum magnitude displayed is 2.5.

Coastal Water Temperatures

Place Temperature

Nearby Weather Stations